CheckWX is a tool to help pilots better visualize weather data.  It is not intended as a substitute for an official pre-flight weather briefing.

18:49:26 UTC

LTCT TAF
Iğdır
Iğdır, Turkey
TAF LTCT 221340Z 2215/2224 22018KT 9999 SCT100

Feb-22@
15:00 UTC

Feb-22 @ 15:00 UTC

Feb-23@
00:00 UTC

Feb-23 @ 00:00 UTC

TAF LTCT 221340Z 2215/2224 22018KT 9999 SCT100
Wind
  • 220° at 18 KTS
Cloud Levels
  • Scattered at 10,000' AGL